Time;durP1;ratioP1;P1;durP2;ratioP2;P2;SDS_P1;SDS_P2;PMS_P1;PMS_P2;Temp;Humidity;BMP_temperature;BMP_pressure;BME280_temperature;BME280_humidity;BME280_pressure;Samples;Min_cycle;Max_cycle;Signal;HPM_P1;HPM_P2
2023/04/06 00:10:04;;;;;;;71.82;39.97;;;;;;;-2.49;74.23;100679.13;30704531;28;96939;-64
2023/04/06 00:25:05;;;;;;;60.22;30.95;;;;;;;-2.65;74.98;100676.41;30622432;28;96722;-64
2023/04/06 00:40:06;;;;;;;62.65;31.27;;;;;;;-2.78;75.53;100677.00;30621049;28;97603;-63
2023/04/06 00:55:07;;;;;;;44.03;25.10;;;;;;;-2.89;75.01;100671.47;30670888;28;96830;-63
2023/04/06 01:10:08;;;;;;;48.20;26.13;;;;;;;-3.02;75.50;100670.34;30738971;28;96746;-63
2023/04/06 01:25:09;;;;;;;46.22;28.00;;;;;;;-3.18;75.55;100673.66;30737381;28;96658;-63
2023/04/06 01:40:11;;;;;;;48.72;27.13;;;;;;;-3.29;75.79;100660.28;30736834;28;97436;-64
2023/04/06 01:55:11;;;;;;;52.78;29.45;;;;;;;-3.42;76.19;100660.84;30733215;28;96968;-63
2023/04/06 02:10:15;;;;;;;57.15;30.13;;;;;;;-3.50;75.94;100660.34;30733690;28;96937;-64
2023/04/06 02:25:15;;;;;;;59.67;31.17;;;;;;;-3.60;76.59;100661.66;30732444;28;97012;-63
2023/04/06 02:40:15;;;;;;;51.28;27.50;;;;;;;-3.62;76.47;100660.88;30729279;28;96632;-63
2023/04/06 02:55:16;;;;;;;44.35;26.50;;;;;;;-3.65;76.98;100671.41;30728593;28;97073;-64
2023/04/06 03:10:17;;;;;;;43.67;26.05;;;;;;;-3.69;77.34;100680.28;30747483;28;96961;-63
2023/04/06 03:25:17;;;;;;;34.88;21.88;;;;;;;-3.73;76.99;100687.38;30747410;28;96681;-64
2023/04/06 03:40:17;;;;;;;38.65;23.30;;;;;;;-3.77;77.52;100694.47;30686752;28;97039;-63
2023/04/06 03:55:18;;;;;;;43.85;26.77;;;;;;;-3.76;77.69;100706.59;30655521;28;97106;-64
2023/04/06 04:10:18;;;;;;;44.17;25.60;;;;;;;-3.82;77.62;100712.03;30681151;28;98238;-69
2023/04/06 04:25:18;;;;;;;42.88;23.98;;;;;;;-3.83;77.35;100712.13;30665735;28;96927;-66
2023/04/06 04:40:19;;;;;;;46.75;23.55;;;;;;;-3.81;77.19;100705.94;30636155;28;97378;-66
2023/04/06 04:55:19;;;;;;;58.17;29.13;;;;;;;-3.57;77.85;100716.19;30601132;28;97052;-67
2023/04/06 05:10:20;;;;;;;65.30;28.40;;;;;;;-3.00;77.68;100715.44;30608579;28;96985;-64
2023/04/06 05:25:20;;;;;;;46.10;28.10;;;;;;;-2.11;78.49;100721.63;30611669;28;96868;-65
2023/04/06 05:40:20;;;;;;;50.88;26.25;;;;;;;-1.12;77.68;100732.28;30610477;28;96724;-67
2023/04/06 05:55:21;;;;;;;47.20;25.95;;;;;;;-0.27;77.66;100729.44;30609160;28;96779;-65
2023/04/06 06:10:23;;;;;;;43.97;25.95;;;;;;;0.63;76.95;100741.63;30632024;28;96929;-66
2023/04/06 06:25:23;;;;;;;37.03;22.45;;;;;;;1.81;76.45;100729.03;30618253;28;96787;-64
2023/04/06 06:40:24;;;;;;;31.60;20.40;;;;;;;3.06;74.67;100731.09;30618904;28;96717;-63
2023/04/06 06:55:26;;;;;;;37.08;22.85;;;;;;;4.13;72.41;100718.09;30624332;28;96706;-64
2023/04/06 07:10:27;;;;;;;35.05;22.92;;;;;;;5.23;71.12;100721.06;30625055;28;97038;-66
2023/04/06 07:25:27;;;;;;;34.50;21.15;;;;;;;6.41;69.61;100731.72;30622834;28;96729;-64
2023/04/06 07:40:28;;;;;;;34.80;20.45;;;;;;;7.86;66.63;100735.94;30622282;28;97121;-67
2023/04/06 07:55:28;;;;;;;29.48;15.32;;;;;;;9.34;63.65;100738.09;30616833;28;97668;-64
2023/04/06 08:10:29;;;;;;;15.25;9.77;;;;;;;10.86;58.52;100733.72;30618262;28;96944;-64
2023/04/06 08:25:29;;;;;;;21.75;13.68;;;;;;;12.01;54.28;100732.25;30617762;28;96765;-64
2023/04/06 08:40:30;;;;;;;16.27;10.38;;;;;;;13.16;48.64;100733.88;30614978;28;96648;-64
2023/04/06 08:55:30;;;;;;;12.38;9.18;;;;;;;14.53;45.46;100727.88;30685726;28;98143;-65
2023/04/06 09:10:32;;;;;;;13.87;8.07;;;;;;;16.52;39.13;100728.66;30734924;28;96787;-65
2023/04/06 09:25:32;;;;;;;13.43;7.93;;;;;;;30.58;20.87;100724.22;30733419;28;96700;-64
2023/04/06 09:40:33;;;;;;;13.00;8.50;;;;;;;31.21;17.15;100711.38;30731839;28;97314;-64
2023/04/06 09:55:43;;;;;;;9.52;6.18;;;;;;;32.80;14.90;100699.59;30730791;28;97360;-64
2023/04/06 10:10:44;;;;;;;7.57;5.60;;;;;;;34.75;12.18;100696.72;30729342;28;97311;-65
2023/04/06 10:26:00;;;;;;;7.37;5.40;;;;;;;37.61;10.61;100681.75;30730243;28;96740;-66
2023/04/06 10:41:07;;;;;;;8.90;5.37;;;;;;;41.78;8.13;100671.94;30727648;28;97554;-65
2023/04/06 10:56:15;;;;;;;6.03;4.57;;;;;;;44.96;6.26;100655.91;30678541;28;97396;-65
2023/04/06 11:11:18;;;;;;;11.63;5.37;;;;;;;46.22;5.50;100646.88;30635669;28;96811;-66
2023/04/06 11:26:18;;;;;;;6.70;4.80;;;;;;;39.83;7.74;100624.19;30614384;28;97429;-65
2023/04/06 11:41:23;;;;;;;8.65;4.40;;;;;;;36.52;7.95;100606.66;30621506;28;97300;-66
2023/04/06 11:56:30;;;;;;;6.67;4.97;;;;;;;40.56;6.39;100599.63;30620639;28;97125;-65
2023/04/06 12:11:30;;;;;;;10.07;5.70;;;;;;;38.46;6.80;100586.88;30641531;28;97362;-63
2023/04/06 12:26:31;;;;;;;8.32;6.03;;;;;;;31.51;9.69;100563.38;30739250;28;96847;-65
2023/04/06 12:41:32;;;;;;;15.38;7.55;;;;;;;26.15;12.72;100534.53;30728507;28;96840;-65
2023/04/06 12:56:32;;;;;;;9.73;6.97;;;;;;;23.93;14.33;100519.88;30729926;28;97081;-65
2023/04/06 13:11:33;;;;;;;8.40;6.13;;;;;;;22.48;15.63;100503.06;30735307;28;97201;-66
2023/04/06 13:26:33;;;;;;;7.47;5.60;;;;;;;21.57;15.92;100507.09;30617807;28;97054;-64
2023/04/06 13:41:34;;;;;;;9.37;5.40;;;;;;;21.19;16.48;100493.97;30611162;28;96758;-64
2023/04/06 13:56:34;;;;;;;8.95;5.47;;;;;;;19.65;17.36;100485.88;30631941;28;96868;-64
2023/04/06 14:11:35;;;;;;;12.88;7.03;;;;;;;18.77;18.58;100483.03;30730782;28;97444;-65
2023/04/06 14:26:36;;;;;;;10.55;5.75;;;;;;;17.72;19.65;100478.66;30611756;28;96817;-65
2023/04/06 14:41:36;;;;;;;11.37;6.00;;;;;;;16.75;20.76;100467.44;30655403;28;96755;-65
2023/04/06 14:56:38;;;;;;;10.40;6.05;;;;;;;15.61;21.69;100466.97;30732335;28;96895;-62
2023/04/06 15:11:38;;;;;;;8.60;5.73;;;;;;;14.75;22.72;100456.31;30651652;28;97172;-65
2023/04/06 15:26:39;;;;;;;8.05;6.05;;;;;;;14.07;23.54;100449.38;30625571;28;96797;-67
2023/04/06 15:41:39;;;;;;;7.90;5.85;;;;;;;13.33;24.34;100437.59;30624227;28;97387;-68
2023/04/06 15:56:40;;;;;;;8.07;5.93;;;;;;;12.30;26.17;100430.88;30622273;28;96867;-63
2023/04/06 16:11:40;;;;;;;10.90;6.47;;;;;;;11.55;27.16;100437.47;30621155;28;96843;-70
2023/04/06 16:26:41;;;;;;;9.52;5.50;;;;;;;10.87;27.69;100435.06;30619276;28;96777;-66
2023/04/06 16:41:42;;;;;;;10.82;5.95;;;;;;;10.12;28.76;100439.38;30716824;28;97322;-66
2023/04/06 16:56:42;;;;;;;7.85;6.30;;;;;;;9.36;30.21;100434.84;30725467;28;97697;-69
2023/04/06 17:11:42;;;;;;;13.07;6.90;;;;;;;8.71;31.29;100439.50;30725552;28;96814;-61
2023/04/06 17:26:43;;;;;;;11.25;6.70;;;;;;;8.16;32.16;100448.34;30707197;28;97111;-62
2023/04/06 17:41:43;;;;;;;11.90;7.32;;;;;;;7.49;34.49;100456.44;30625569;28;96767;-64
2023/04/06 17:56:43;;;;;;;10.70;6.88;;;;;;;7.10;35.42;100459.97;30601342;28;97180;-63
2023/04/06 18:11:44;;;;;;;8.93;5.63;;;;;;;7.01;35.48;100466.16;30616812;28;96835;-61
2023/04/06 18:26:44;;;;;;;12.95;6.88;;;;;;;6.88;35.62;100468.22;30716544;28;96973;-69
2023/04/06 18:41:45;;;;;;;12.98;6.90;;;;;;;6.81;36.07;100472.38;30732572;28;97186;-67
2023/04/06 18:56:46;;;;;;;11.88;7.57;;;;;;;6.77;36.46;100485.91;30724845;28;97563;-68
2023/04/06 19:11:46;;;;;;;11.80;7.97;;;;;;;6.67;37.15;100482.44;30628850;28;97178;-66
2023/04/06 19:26:47;;;;;;;15.73;8.13;;;;;;;6.51;37.96;100482.97;30624473;28;100227;-68
2023/04/06 19:41:47;;;;;;;11.75;8.52;;;;;;;6.31;38.35;100474.13;30623410;28;97862;-65
2023/04/06 19:56:47;;;;;;;14.30;8.43;;;;;;;6.07;38.84;100469.22;30635383;28;97461;-68
2023/04/06 20:11:48;;;;;;;14.63;9.23;;;;;;;6.12;39.31;100463.50;30730751;28;96882;-62
2023/04/06 20:26:49;;;;;;;14.13;9.40;;;;;;;6.18;39.05;100465.59;30680017;28;96799;-64
2023/04/06 20:41:50;;;;;;;18.02;10.52;;;;;;;6.23;39.38;100452.81;30679976;28;97404;-63
2023/04/06 20:56:50;;;;;;;17.73;10.00;;;;;;;6.28;39.44;100442.66;30661347;28;97646;-63
2023/04/06 21:11:50;;;;;;;16.17;9.85;;;;;;;6.31;39.60;100429.16;30689470;28;97384;-62
2023/04/06 21:26:51;;;;;;;17.30;9.50;;;;;;;6.29;40.01;100441.69;30699982;28;97642;-68
2023/04/06 21:41:51;;;;;;;16.63;9.02;;;;;;;6.24;40.12;100413.00;30661450;28;107323;-70
2023/04/06 21:56:51;;;;;;;15.07;10.07;;;;;;;6.18;40.06;100425.91;30686806;28;96667;-64
2023/04/06 22:11:52;;;;;;;13.35;8.50;;;;;;;6.07;40.55;100406.56;30664915;28;96896;-65
2023/04/06 22:26:52;;;;;;;15.02;9.18;;;;;;;5.97;40.69;100389.78;30611823;28;102741;-66
2023/04/06 22:41:52;;;;;;;18.17;10.85;;;;;;;5.97;41.23;100389.78;30612250;28;96640;-66
2023/04/06 22:56:53;;;;;;;15.43;9.32;;;;;;;5.80;42.07;100393.09;30624767;28;112187;-67
2023/04/06 23:11:55;;;;;;;19.15;10.32;;;;;;;5.46;43.98;100396.03;30609581;28;97770;-64
2023/04/06 23:26:55;;;;;;;19.20;11.40;;;;;;;5.06;46.15;100387.88;30686100;28;96950;-64
2023/04/06 23:41:56;;;;;;;15.68;9.05;;;;;;;4.88;48.01;100384.13;30749071;28;99060;-64
2023/04/06 23:56:57;;;;;;;14.25;8.88;;;;;;;4.61;49.84;100384.63;30747057;28;97291;-64
